createdAt,value
2018-03-15T00:01:31.724Z,26.27
2018-03-15T00:03:59.384Z,22.37
2018-03-15T00:06:26.992Z,30.03
2018-03-15T00:08:54.625Z,27.13
2018-03-15T00:11:22.241Z,50.23
2018-03-15T00:13:49.876Z,32.30
2018-03-15T00:16:17.488Z,35.33
2018-03-15T00:18:45.126Z,39.97
2018-03-15T00:21:12.742Z,25.57
2018-03-15T00:23:40.378Z,38.40
2018-03-15T00:26:07.990Z,33.77
2018-03-15T00:28:35.640Z,30.00
2018-03-15T00:31:03.257Z,43.63
2018-03-15T00:33:30.868Z,34.73
2018-03-15T00:35:58.585Z,34.03
2018-03-15T00:38:26.202Z,28.30
2018-03-15T00:40:53.841Z,41.97
2018-03-15T00:43:21.478Z,34.20
2018-03-15T00:45:49.154Z,42.27
2018-03-15T00:48:16.804Z,39.30
2018-03-15T00:50:44.469Z,32.80
2018-03-15T00:53:12.081Z,30.77
2018-03-15T00:55:39.717Z,39.30
2018-03-15T00:58:07.337Z,50.63
2018-03-15T01:00:34.988Z,39.83
2018-03-15T01:03:02.677Z,32.90
2018-03-15T01:05:30.288Z,39.83
2018-03-15T01:07:57.926Z,33.10
2018-03-15T01:10:25.567Z,30.13
2018-03-15T01:12:53.228Z,39.33
2018-03-15T01:15:20.840Z,38.73
2018-03-15T01:17:48.483Z,50.93
2018-03-15T01:20:16.109Z,42.83
2018-03-15T01:22:43.772Z,36.70
2018-03-15T01:25:11.445Z,48.50
2018-03-15T01:27:39.081Z,40.23
2018-03-15T01:30:06.758Z,37.40
2018-03-15T01:32:34.389Z,40.20
2018-03-15T01:35:02.099Z,40.50
2018-03-15T01:37:29.753Z,33.93
2018-03-15T01:39:57.416Z,28.27
2018-03-15T01:42:25.172Z,39.13
2018-03-15T01:44:52.849Z,41.30
2018-03-15T01:47:20.513Z,35.23
2018-03-15T01:49:48.156Z,31.37
2018-03-15T01:52:15.776Z,40.53
2018-03-15T01:54:43.412Z,26.70
2018-03-15T01:57:11.024Z,33.80
2018-03-15T01:59:38.650Z,30.53
2018-03-15T02:02:06.272Z,34.80
2018-03-15T02:04:33.941Z,37.47
2018-03-15T02:07:01.556Z,38.60
2018-03-15T02:09:29.273Z,38.40
2018-03-15T02:11:56.936Z,33.87
2018-03-15T02:14:24.592Z,40.80
2018-03-15T02:16:52.260Z,39.30
2018-03-15T02:19:19.916Z,43.00
2018-03-15T02:21:47.539Z,44.03
2018-03-15T02:24:15.161Z,31.10
2018-03-15T02:26:42.905Z,33.80
2018-03-15T02:29:10.611Z,48.07
2018-03-15T02:31:38.337Z,39.63
2018-03-15T02:34:05.948Z,32.53
2018-03-15T02:36:33.662Z,36.43
2018-03-15T02:39:01.326Z,34.33
2018-03-15T02:41:28.976Z,36.87
2018-03-15T02:43:56.645Z,29.10
2018-03-15T02:46:24.313Z,30.57
2018-03-15T02:48:51.944Z,38.73
2018-03-15T02:51:19.638Z,32.20
2018-03-15T02:53:47.296Z,34.73
2018-03-15T02:56:14.917Z,43.13
2018-03-15T02:58:42.615Z,33.57
2018-03-15T03:01:10.389Z,37.40
2018-03-15T03:03:38.048Z,45.03
2018-03-15T03:06:05.651Z,40.73
2018-03-15T03:08:33.293Z,24.87
2018-03-15T03:11:00.900Z,33.67
2018-03-15T03:13:28.533Z,32.83
2018-03-15T03:15:56.159Z,43.57
2018-03-15T03:18:23.815Z,47.67
2018-03-15T03:20:51.482Z,31.40
2018-03-15T03:23:19.143Z,23.13
2018-03-15T03:25:46.813Z,36.27
2018-03-15T03:28:14.429Z,38.93
2018-03-15T03:30:42.088Z,35.60
2018-03-15T03:33:09.792Z,37.47
2018-03-15T03:35:37.469Z,42.17
2018-03-15T03:38:05.118Z,43.47
2018-03-15T03:40:32.753Z,33.60
2018-03-15T03:43:00.453Z,19.90
2018-03-15T03:45:28.088Z,41.27
2018-03-15T03:47:55.708Z,27.30
2018-03-15T03:50:23.345Z,34.90
2018-03-15T03:52:51.001Z,26.40
2018-03-15T03:55:19.229Z,33.67
2018-03-15T03:57:46.941Z,40.67
2018-03-15T04:00:14.604Z,39.73
2018-03-15T04:02:42.263Z,34.33
2018-03-15T04:05:09.907Z,31.60
2018-03-15T04:07:37.517Z,39.53
2018-03-15T04:10:05.133Z,36.00
2018-03-15T04:12:32.772Z,35.40
2018-03-15T04:15:00.384Z,39.33
2018-03-15T04:17:28.031Z,42.83
2018-03-15T04:19:55.644Z,41.10
2018-03-15T04:22:23.355Z,32.83
2018-03-15T04:24:50.964Z,41.27
2018-03-15T04:27:18.693Z,44.10
2018-03-15T04:29:46.301Z,28.70
2018-03-15T04:32:13.935Z,33.73
2018-03-15T04:34:41.544Z,46.57
2018-03-15T04:37:09.236Z,33.10
2018-03-15T04:39:36.901Z,28.50
2018-03-15T04:42:04.520Z,30.63
2018-03-15T04:44:32.157Z,40.33
2018-03-15T04:46:59.769Z,37.83
2018-03-15T04:49:27.406Z,37.00
2018-03-15T04:51:55.022Z,50.30
2018-03-15T04:54:22.652Z,33.73
2018-03-15T04:56:50.265Z,49.37
2018-03-15T04:59:17.913Z,34.60
2018-03-15T05:01:45.531Z,35.33
2018-03-15T05:04:13.214Z,32.23
2018-03-15T05:06:40.884Z,32.73
2018-03-15T05:09:08.671Z,31.73
2018-03-15T05:11:36.307Z,23.67
2018-03-15T05:14:03.962Z,33.83
2018-03-15T05:16:31.572Z,29.40
2018-03-15T05:18:59.176Z,32.47
2018-03-15T05:21:26.817Z,28.30
2018-03-15T05:23:54.465Z,32.53
2018-03-15T05:26:22.184Z,36.83
2018-03-15T05:28:49.853Z,23.03
2018-03-15T05:31:17.514Z,21.13
2018-03-15T05:33:45.571Z,30.93
2018-03-15T05:36:13.353Z,38.50
2018-03-15T05:38:40.972Z,23.10
2018-03-15T05:41:08.669Z,25.27
2018-03-15T05:43:36.284Z,17.53
2018-03-15T05:46:04.000Z,19.00
2018-03-15T05:48:31.666Z,17.07
2018-03-15T05:50:59.319Z,32.03
2018-03-15T05:53:26.983Z,16.83
2018-03-15T05:55:54.813Z,24.83
2018-03-15T05:58:22.453Z,28.67
2018-03-15T06:00:50.066Z,20.03
2018-03-15T06:03:17.698Z,15.20
2018-03-15T06:05:45.399Z,17.00
2018-03-15T06:08:13.274Z,21.13
2018-03-15T06:10:40.929Z,23.47
2018-03-15T06:13:09.049Z,22.30
2018-03-15T06:15:36.669Z,20.50
2018-03-15T06:18:04.380Z,11.83
2018-03-15T06:20:31.988Z,16.60
2018-03-15T06:22:59.755Z,12.90
2018-03-15T06:25:27.529Z,9.33
2018-03-15T06:27:55.400Z,16.40
2018-03-15T06:30:23.062Z,12.40
2018-03-15T06:32:50.685Z,14.57
2018-03-15T06:35:18.385Z,14.20
2018-03-15T06:37:46.002Z,14.90
2018-03-15T06:40:13.629Z,12.10
2018-03-15T06:42:41.232Z,18.37
2018-03-15T06:45:08.855Z,12.43
2018-03-15T06:47:36.466Z,12.47
2018-03-15T06:50:04.105Z,12.10
2018-03-15T06:52:31.822Z,20.80
2018-03-15T06:54:59.448Z,16.30
2018-03-15T06:57:27.143Z,12.87
2018-03-15T06:59:54.748Z,8.07
2018-03-15T07:02:22.381Z,10.10
2018-03-15T07:04:50.032Z,12.03
2018-03-15T07:07:17.692Z,16.30
2018-03-15T07:09:45.290Z,13.03
2018-03-15T07:12:13.020Z,9.33
2018-03-15T07:14:40.620Z,8.67
2018-03-15T07:17:08.265Z,17.83
2018-03-15T07:19:35.904Z,11.83
2018-03-15T07:22:03.532Z,10.57
2018-03-15T07:24:31.141Z,13.73
2018-03-15T07:26:58.768Z,19.17
2018-03-15T07:29:26.453Z,14.07
2018-03-15T07:31:54.085Z,13.73
2018-03-15T07:34:21.725Z,11.37
2018-03-15T07:36:49.344Z,9.50
2018-03-15T07:39:17.064Z,7.23
2018-03-15T07:41:44.664Z,12.03
2018-03-15T07:44:12.269Z,16.00
2018-03-15T07:46:39.986Z,11.97
2018-03-15T07:49:07.583Z,8.53
2018-03-15T07:51:35.183Z,7.40
2018-03-15T07:54:02.821Z,8.00
2018-03-15T07:56:30.433Z,9.10
2018-03-15T07:58:58.059Z,8.43
2018-03-15T08:01:25.765Z,8.27
2018-03-15T08:03:53.387Z,8.73
2018-03-15T08:06:21.001Z,9.03
2018-03-15T08:08:48.661Z,7.23
2018-03-15T08:11:16.308Z,7.90
2018-03-15T08:13:43.937Z,8.93
2018-03-15T08:16:11.548Z,15.03
2018-03-15T08:18:39.157Z,9.13
2018-03-15T08:21:06.793Z,16.83
2018-03-15T08:23:34.405Z,12.87
2018-03-15T08:26:02.033Z,9.00
2018-03-15T08:28:29.645Z,12.53
2018-03-15T08:30:57.281Z,10.10
2018-03-15T08:33:24.945Z,11.03
2018-03-15T08:35:52.741Z,13.80
2018-03-15T08:38:20.404Z,18.70
2018-03-15T08:40:48.067Z,13.67
2018-03-15T08:43:15.667Z,13.17
2018-03-15T08:45:43.305Z,13.13
2018-03-15T08:48:10.929Z,18.60
2018-03-15T08:50:38.564Z,13.57
2018-03-15T08:53:06.182Z,11.43
2018-03-15T08:55:33.837Z,14.30
2018-03-15T08:58:01.448Z,20.40
2018-03-15T09:00:29.095Z,16.77
2018-03-15T09:02:56.711Z,18.93
2018-03-15T09:05:24.329Z,17.23
2018-03-15T09:07:51.969Z,17.47
2018-03-15T09:10:19.605Z,14.33
2018-03-15T09:12:47.260Z,15.23
2018-03-15T09:15:14.874Z,13.57
2018-03-15T09:17:42.506Z,18.13
2018-03-15T09:20:10.152Z,19.17
2018-03-15T09:22:37.798Z,19.90
2018-03-15T09:25:05.417Z,15.70
2018-03-15T09:27:33.045Z,14.43
2018-03-15T09:30:00.663Z,17.83
2018-03-15T09:32:28.365Z,12.10
2018-03-15T09:34:56.039Z,8.93
2018-03-15T09:37:23.693Z,8.93
2018-03-15T09:39:51.320Z,10.17
2018-03-15T09:42:18.991Z,10.60
2018-03-15T09:44:47.186Z,12.07
2018-03-15T09:47:14.822Z,12.30
2018-03-15T09:49:42.517Z,7.67
2018-03-15T09:52:10.140Z,11.40
2018-03-15T09:54:37.836Z,10.50
2018-03-15T09:57:05.476Z,5.43
2018-03-15T09:59:33.131Z,12.93
2018-03-15T10:02:00.833Z,8.63
2018-03-15T10:04:28.597Z,10.30
2018-03-15T10:06:56.256Z,6.63
2018-03-15T10:09:23.915Z,8.23
2018-03-15T10:11:51.588Z,12.10
2018-03-15T10:14:19.255Z,7.90
2018-03-15T10:16:46.918Z,9.40
2018-03-15T10:19:14.565Z,11.70
2018-03-15T10:21:42.231Z,11.23
2018-03-15T10:24:09.948Z,20.97
2018-03-15T10:26:37.577Z,9.00
2018-03-15T10:29:05.216Z,18.43
2018-03-15T10:31:32.889Z,23.13
2018-03-15T10:34:00.528Z,11.73
2018-03-15T10:36:28.180Z,9.40
2018-03-15T10:38:55.792Z,11.60
2018-03-15T10:41:23.530Z,5.30
2018-03-15T10:43:51.200Z,10.30
2018-03-15T10:46:18.841Z,7.43
2018-03-15T10:48:46.481Z,11.00
2018-03-15T10:51:14.141Z,8.77
2018-03-15T10:53:41.761Z,14.40
2018-03-15T10:56:09.517Z,13.73
2018-03-15T10:58:37.145Z,11.27
2018-03-15T11:01:06.715Z,9.87
2018-03-15T11:03:40.016Z,8.13
2018-03-15T11:06:10.395Z,10.47
2018-03-15T11:08:38.016Z,8.63
2018-03-15T11:11:15.257Z,9.43
2018-03-15T11:13:42.911Z,8.60
2018-03-15T11:16:10.587Z,8.10
2018-03-15T11:18:38.217Z,9.03
2018-03-15T11:21:05.877Z,8.83
2018-03-15T11:23:33.575Z,12.50
2018-03-15T11:26:01.229Z,13.07
2018-03-15T11:28:28.879Z,13.93
2018-03-15T11:30:56.560Z,14.77
2018-03-15T11:33:24.221Z,11.03
2018-03-15T11:35:51.853Z,20.20
2018-03-15T11:38:19.509Z,13.83
2018-03-15T11:40:47.127Z,7.43
2018-03-15T11:43:14.869Z,9.53
2018-03-15T11:45:42.504Z,11.13
2018-03-15T11:48:10.161Z,10.83
2018-03-15T11:50:37.831Z,9.87
2018-03-15T11:53:05.459Z,13.53
2018-03-15T11:55:33.193Z,11.40
2018-03-15T11:58:00.954Z,9.73
2018-03-15T12:00:28.592Z,12.03
2018-03-15T12:02:56.245Z,5.47
2018-03-15T12:05:23.873Z,7.97
2018-03-15T12:07:51.605Z,12.10
2018-03-15T12:10:19.264Z,10.30
2018-03-15T12:12:46.897Z,9.77
2018-03-15T12:15:14.535Z,7.53
2018-03-15T12:17:42.257Z,7.70
2018-03-15T12:20:09.912Z,9.50
2018-03-15T12:22:37.516Z,9.90
2018-03-15T12:25:05.145Z,7.73
2018-03-15T12:27:32.744Z,12.70
2018-03-15T12:30:00.373Z,8.97
2018-03-15T12:32:28.019Z,13.13
2018-03-15T12:34:55.684Z,8.93
2018-03-15T12:37:23.345Z,8.33
2018-03-15T12:39:50.988Z,8.37
2018-03-15T12:42:18.607Z,13.00
2018-03-15T12:44:46.237Z,6.70
2018-03-15T12:47:13.904Z,10.27
2018-03-15T12:49:41.538Z,6.93
2018-03-15T12:52:09.140Z,5.67
2018-03-15T12:54:36.779Z,9.40
2018-03-15T12:57:04.409Z,9.87
2018-03-15T12:59:32.112Z,12.63
2018-03-15T13:01:59.777Z,6.20
2018-03-15T13:04:27.436Z,8.20
2018-03-15T13:06:55.064Z,10.43
2018-03-15T13:09:22.668Z,8.77
2018-03-15T13:11:50.302Z,15.40
2018-03-15T13:14:17.907Z,8.60
2018-03-15T13:16:45.653Z,8.97
2018-03-15T13:19:13.313Z,7.93
2018-03-15T13:21:40.967Z,7.93
2018-03-15T13:24:08.572Z,10.50
2018-03-15T13:26:36.301Z,12.23
2018-03-15T13:29:03.966Z,9.97
2018-03-15T13:31:31.598Z,9.70
2018-03-15T13:33:59.218Z,10.47
2018-03-15T13:36:26.844Z,9.83
2018-03-15T13:38:54.471Z,15.53
2018-03-15T13:41:22.172Z,9.60
2018-03-15T13:43:49.874Z,12.87
2018-03-15T13:46:17.500Z,11.10
2018-03-15T13:48:45.133Z,15.20
2018-03-15T13:51:12.741Z,17.17
2018-03-15T13:53:40.372Z,12.60
2018-03-15T13:56:08.054Z,18.83
2018-03-15T13:58:35.684Z,13.83
2018-03-15T14:01:03.378Z,10.10
2018-03-15T14:03:31.008Z,12.90
2018-03-15T14:05:58.701Z,11.00
2018-03-15T14:08:26.561Z,8.77
2018-03-15T14:10:54.235Z,14.17
2018-03-15T14:13:21.886Z,16.30
2018-03-15T14:15:49.570Z,12.03
2018-03-15T14:18:17.172Z,10.13
2018-03-15T14:20:44.800Z,9.60
2018-03-15T14:23:12.441Z,9.40
2018-03-15T14:25:40.109Z,13.13
2018-03-15T14:28:07.769Z,12.97
2018-03-15T14:30:35.409Z,11.17
2018-03-15T14:33:03.013Z,8.57
2018-03-15T14:35:30.744Z,8.40
2018-03-15T14:37:58.351Z,7.07
2018-03-15T14:40:25.985Z,10.77
2018-03-15T14:42:53.579Z,6.90
2018-03-15T14:45:21.634Z,7.57
2018-03-15T14:47:49.241Z,9.77
2018-03-15T14:50:16.873Z,7.00
2018-03-15T14:52:44.538Z,8.17
2018-03-15T14:55:12.129Z,6.60
2018-03-15T14:57:39.816Z,8.07
2018-03-15T15:00:07.450Z,6.13
2018-03-15T15:02:35.063Z,7.30
2018-03-15T15:05:02.718Z,8.43
2018-03-15T15:07:30.365Z,7.53
2018-03-15T15:09:58.092Z,9.90
2018-03-15T15:12:25.723Z,6.27
2018-03-15T15:14:53.361Z,5.47
2018-03-15T15:17:20.988Z,10.67
2018-03-15T15:19:48.601Z,9.33
2018-03-15T15:22:16.251Z,14.70
2018-03-15T15:24:43.913Z,19.50
2018-03-15T15:27:11.559Z,9.43
2018-03-15T15:29:39.178Z,9.50
2018-03-15T15:32:06.810Z,8.13
2018-03-15T15:34:34.433Z,8.23
2018-03-15T15:37:02.116Z,6.27
2018-03-15T15:39:29.789Z,6.30
2018-03-15T15:41:57.407Z,5.80
2018-03-15T15:44:25.008Z,9.43
2018-03-15T15:46:52.628Z,7.40
2018-03-15T15:49:20.993Z,6.20
2018-03-15T15:51:48.713Z,8.80
2018-03-15T15:54:16.321Z,8.53
2018-03-15T15:56:44.044Z,7.50
2018-03-15T15:59:11.697Z,7.77
2018-03-15T16:01:39.299Z,11.77
2018-03-15T16:04:06.924Z,6.53
2018-03-15T16:06:34.528Z,7.60
2018-03-15T16:09:02.246Z,11.63
2018-03-15T16:11:29.853Z,7.00
2018-03-15T16:13:57.489Z,11.43
2018-03-15T16:16:25.136Z,7.70
2018-03-15T16:18:52.791Z,6.27
2018-03-15T16:21:20.411Z,6.00
2018-03-15T16:23:48.040Z,8.90
2018-03-15T16:26:15.685Z,6.53
2018-03-15T16:28:43.343Z,10.43
2018-03-15T16:31:10.936Z,9.80
2018-03-15T16:33:38.678Z,7.63
2018-03-15T16:36:06.289Z,17.90
2018-03-15T16:38:33.913Z,7.73
2018-03-15T16:41:01.515Z,10.57
2018-03-15T16:43:29.217Z,7.50
2018-03-15T16:45:56.819Z,15.23
2018-03-15T16:48:24.553Z,10.43
2018-03-15T16:50:52.249Z,9.33
2018-03-15T16:53:19.856Z,7.47
2018-03-15T16:55:47.531Z,11.77
2018-03-15T16:58:15.127Z,14.33
2018-03-15T17:00:42.865Z,10.63
2018-03-15T17:03:10.533Z,7.30
2018-03-15T17:05:38.155Z,10.03
2018-03-15T17:08:05.757Z,7.20
2018-03-15T17:10:33.378Z,12.97
2018-03-15T17:13:01.076Z,9.00
2018-03-15T17:15:28.703Z,13.13
2018-03-15T17:17:56.299Z,7.37
2018-03-15T17:20:23.929Z,9.23
2018-03-15T17:22:51.720Z,10.47
2018-03-15T17:25:19.385Z,12.27
2018-03-15T17:27:46.997Z,9.00
2018-03-15T17:30:14.672Z,15.33
2018-03-15T17:32:42.273Z,9.27
2018-03-15T17:35:09.936Z,10.43
2018-03-15T17:37:37.596Z,13.03
2018-03-15T17:40:05.196Z,7.77
2018-03-15T17:42:32.924Z,8.90
2018-03-15T17:45:00.537Z,28.43
2018-03-15T17:47:28.252Z,14.30
2018-03-15T17:49:56.012Z,12.87
2018-03-15T17:52:23.668Z,13.10
2018-03-15T17:54:51.348Z,10.97
2018-03-15T17:57:18.971Z,12.73
2018-03-15T17:59:46.576Z,12.93
2018-03-15T18:02:14.287Z,11.87
2018-03-15T18:04:41.905Z,13.30
2018-03-15T18:07:09.557Z,10.53
2018-03-15T18:09:37.171Z,13.57
2018-03-15T18:12:04.889Z,15.50
2018-03-15T18:14:32.501Z,18.90
2018-03-15T18:17:00.108Z,14.27
2018-03-15T18:19:27.736Z,11.20
2018-03-15T18:21:55.418Z,14.35
2018-03-15T18:24:23.044Z,16.83
2018-03-15T18:26:50.757Z,14.53
2018-03-15T18:29:18.380Z,8.57
2018-03-15T18:31:46.090Z,10.43
2018-03-15T18:34:13.725Z,11.83
2018-03-15T18:36:41.437Z,11.20
2018-03-15T18:39:09.062Z,14.17
2018-03-15T18:41:36.664Z,12.93
2018-03-15T18:44:04.387Z,17.87
2018-03-15T18:46:32.061Z,13.60
2018-03-15T18:48:59.727Z,19.03
2018-03-15T18:51:27.380Z,14.07
2018-03-15T18:53:55.017Z,13.10
2018-03-15T18:56:22.712Z,9.07
2018-03-15T18:58:50.364Z,17.93
2018-03-15T19:01:18.003Z,10.50
2018-03-15T19:03:45.595Z,16.70
2018-03-15T19:06:13.219Z,14.20
2018-03-15T19:08:40.853Z,10.17
2018-03-15T19:11:08.485Z,15.17
2018-03-15T19:13:36.299Z,10.40
2018-03-15T19:16:03.936Z,10.23
2018-03-15T19:18:31.565Z,10.37
2018-03-15T19:20:59.236Z,15.40
2018-03-15T19:23:27.769Z,12.90
2018-03-15T19:25:55.408Z,10.20
2018-03-15T19:28:23.020Z,16.37
2018-03-15T19:30:50.698Z,15.90
2018-03-15T19:33:18.373Z,14.40
2018-03-15T19:35:45.999Z,13.30
2018-03-15T19:38:13.692Z,14.50
2018-03-15T19:40:41.364Z,17.03
2018-03-15T19:43:09.034Z,18.40
2018-03-15T19:45:36.675Z,16.73
2018-03-15T19:48:05.201Z,13.63
2018-03-15T19:50:32.814Z,12.97
2018-03-15T19:53:00.460Z,12.60
2018-03-15T19:55:28.147Z,14.07
2018-03-15T19:57:55.812Z,9.17
2018-03-15T20:00:23.435Z,10.53
2018-03-15T20:02:51.077Z,12.03
2018-03-15T20:05:18.705Z,20.10
2018-03-15T20:07:46.337Z,14.73
2018-03-15T20:10:13.985Z,11.17
2018-03-15T20:12:41.695Z,13.07
2018-03-15T20:15:09.352Z,11.17
2018-03-15T20:17:37.533Z,13.73
2018-03-15T20:20:05.165Z,12.30
2018-03-15T20:22:38.540Z,13.70
2018-03-15T20:25:06.171Z,13.13
2018-03-15T20:27:39.518Z,11.60
2018-03-15T20:30:07.245Z,9.13
2018-03-15T20:32:40.583Z,10.73
2018-03-15T20:35:08.213Z,11.07
2018-03-15T20:37:35.885Z,14.90
2018-03-15T20:40:09.005Z,15.43
2018-03-15T20:42:36.617Z,14.90
2018-03-15T20:45:04.240Z,17.37
2018-03-15T20:47:37.451Z,11.67
2018-03-15T20:50:05.084Z,10.77
2018-03-15T20:52:32.701Z,11.80
2018-03-15T20:55:00.316Z,13.17
2018-03-15T20:57:27.979Z,12.87
2018-03-15T20:59:55.746Z,10.17
2018-03-15T21:02:23.396Z,13.30
2018-03-15T21:04:51.071Z,15.77
2018-03-15T21:07:18.735Z,14.80
2018-03-15T21:09:46.336Z,15.10
2018-03-15T21:12:13.953Z,12.90
2018-03-15T21:14:41.630Z,15.97
2018-03-15T21:17:09.256Z,15.70
2018-03-15T21:19:36.874Z,14.87
2018-03-15T21:22:04.607Z,17.93
2018-03-15T21:24:32.231Z,11.33
2018-03-15T21:26:59.962Z,13.43
2018-03-15T21:29:27.700Z,16.03
2018-03-15T21:31:55.313Z,19.87
2018-03-15T21:34:23.003Z,12.03
2018-03-15T21:36:50.701Z,18.50
2018-03-15T21:39:18.327Z,16.63
2018-03-15T21:41:45.939Z,16.00
2018-03-15T21:44:13.564Z,18.50
2018-03-15T21:46:41.236Z,12.80
2018-03-15T21:49:08.872Z,18.83
2018-03-15T21:51:36.480Z,15.63
2018-03-15T21:54:04.113Z,15.27
2018-03-15T21:56:31.798Z,18.23
2018-03-15T21:58:59.448Z,18.03
2018-03-15T22:01:27.055Z,16.53
2018-03-15T22:03:54.689Z,17.90
2018-03-15T22:06:22.339Z,19.70
2018-03-15T22:08:50.420Z,16.70
2018-03-15T22:11:18.039Z,23.53
2018-03-15T22:13:45.649Z,25.30
2018-03-15T22:16:13.293Z,21.70
2018-03-15T22:18:40.909Z,18.57
2018-03-15T22:21:08.540Z,21.07
2018-03-15T22:23:36.189Z,21.63
2018-03-15T22:26:03.873Z,22.97
2018-03-15T22:28:31.485Z,25.00
2018-03-15T22:30:59.122Z,27.43
2018-03-15T22:33:26.727Z,23.50
2018-03-15T22:35:54.362Z,20.90
2018-03-15T22:38:21.973Z,22.63
2018-03-15T22:40:49.603Z,24.33
2018-03-15T22:43:17.221Z,20.97
2018-03-15T22:45:44.851Z,21.67
2018-03-15T22:48:12.509Z,29.63
2018-03-15T22:50:40.165Z,19.67
2018-03-15T22:53:07.772Z,17.13
2018-03-15T22:55:35.419Z,16.67
2018-03-15T22:58:03.040Z,21.17
2018-03-15T23:00:30.659Z,29.37
2018-03-15T23:02:58.313Z,25.33
2018-03-15T23:05:25.934Z,26.37
2018-03-15T23:07:53.567Z,23.13
2018-03-15T23:10:21.176Z,21.63
2018-03-15T23:12:48.819Z,24.70
2018-03-15T23:15:16.493Z,22.03
2018-03-15T23:17:44.123Z,23.33
2018-03-15T23:20:11.793Z,22.87
2018-03-15T23:22:39.410Z,22.10
2018-03-15T23:25:07.012Z,17.93
2018-03-15T23:27:34.625Z,21.60
2018-03-15T23:30:02.262Z,19.87
2018-03-15T23:32:30.690Z,23.03
2018-03-15T23:34:58.403Z,26.70
2018-03-15T23:37:26.013Z,22.60
2018-03-15T23:39:53.639Z,25.43
2018-03-15T23:42:21.247Z,23.63
2018-03-15T23:44:48.877Z,15.67
2018-03-15T23:47:16.515Z,19.67
2018-03-15T23:49:44.292Z,17.40
2018-03-15T23:52:11.909Z,19.87
2018-03-15T23:54:39.609Z,18.70
2018-03-15T23:57:07.280Z,23.60
2018-03-15T23:59:34.892Z,24.20
